sensor_id;sensor_type;location;lat;lon;timestamp;pressure;altitude;pressure_sealevel;temperature;humidity
50011;BME280;35899;50.352;19.390;2022-10-16T00:01:39;97941.52;;;11.79;81.98
50011;BME280;35899;50.352;19.390;2022-10-16T00:04:07;97940.45;;;11.82;82.06
50011;BME280;35899;50.352;19.390;2022-10-16T00:06:35;97946.73;;;11.85;82.30
50011;BME280;35899;50.352;19.390;2022-10-16T00:09:02;97945.33;;;11.86;82.32
50011;BME280;35899;50.352;19.390;2022-10-16T00:11:31;97950.39;;;11.88;82.45
50011;BME280;35899;50.352;19.390;2022-10-16T00:14:03;97945.11;;;11.89;82.42
50011;BME280;35899;50.352;19.390;2022-10-16T00:16:33;97945.00;;;11.91;82.64
50011;BME280;35899;50.352;19.390;2022-10-16T00:19:00;97948.31;;;11.93;82.71
50011;BME280;35899;50.352;19.390;2022-10-16T00:21:29;97952.92;;;11.95;82.87
50011;BME280;35899;50.352;19.390;2022-10-16T00:24:00;97948.43;;;11.97;82.87
50011;BME280;35899;50.352;19.390;2022-10-16T00:26:30;97958.25;;;11.99;82.93
50011;BME280;35899;50.352;19.390;2022-10-16T00:28:59;97959.09;;;12.00;82.84
50011;BME280;35899;50.352;19.390;2022-10-16T00:31:26;97951.30;;;12.00;82.97
50011;BME280;35899;50.352;19.390;2022-10-16T00:33:54;97949.85;;;12.01;83.12
50011;BME280;35899;50.352;19.390;2022-10-16T00:36:23;97951.63;;;12.01;83.12
50011;BME280;35899;50.352;19.390;2022-10-16T00:38:52;97952.11;;;12.00;83.12
50011;BME280;35899;50.352;19.390;2022-10-16T00:41:23;97952.33;;;11.97;83.07
50011;BME280;35899;50.352;19.390;2022-10-16T00:43:56;97958.61;;;11.95;83.11
50011;BME280;35899;50.352;19.390;2022-10-16T00:49:06;97953.52;;;11.93;83.32
50011;BME280;35899;50.352;19.390;2022-10-16T00:51:53;97956.94;;;11.93;83.52
50011;BME280;35899;50.352;19.390;2022-10-16T00:54:25;97957.08;;;11.92;83.61
50011;BME280;35899;50.352;19.390;2022-10-16T00:56:56;97952.91;;;11.89;83.66
50011;BME280;35899;50.352;19.390;2022-10-16T00:59:30;97944.84;;;11.87;83.71
50011;BME280;35899;50.352;19.390;2022-10-16T01:02:00;97953.58;;;11.86;83.78
50011;BME280;35899;50.352;19.390;2022-10-16T01:04:32;97957.14;;;11.85;83.86
50011;BME280;35899;50.352;19.390;2022-10-16T01:13:04;97964.45;;;11.80;84.05
50011;BME280;35899;50.352;19.390;2022-10-16T01:20:56;97977.34;;;11.81;84.43
50011;BME280;35899;50.352;19.390;2022-10-16T01:29:46;97972.23;;;11.74;84.67
50011;BME280;35899;50.352;19.390;2022-10-16T01:32:40;97975.31;;;11.73;84.76
50011;BME280;35899;50.352;19.390;2022-10-16T01:35:22;97973.30;;;11.71;84.88
50011;BME280;35899;50.352;19.390;2022-10-16T01:38:08;97980.38;;;11.69;84.84
50011;BME280;35899;50.352;19.390;2022-10-16T01:40:39;97974.58;;;11.66;84.92
50011;BME280;35899;50.352;19.390;2022-10-16T01:43:25;97975.40;;;11.66;85.02
50011;BME280;35899;50.352;19.390;2022-10-16T01:45:55;97976.36;;;11.65;85.07
50011;BME280;35899;50.352;19.390;2022-10-16T01:48:23;97965.25;;;11.63;85.15
50011;BME280;35899;50.352;19.390;2022-10-16T01:53:30;97968.41;;;11.61;85.21
50011;BME280;35899;50.352;19.390;2022-10-16T01:55:59;97966.16;;;11.57;85.14
50011;BME280;35899;50.352;19.390;2022-10-16T01:58:28;97963.77;;;11.53;85.16
50011;BME280;35899;50.352;19.390;2022-10-16T02:00:58;97966.13;;;11.51;85.21
50011;BME280;35899;50.352;19.390;2022-10-16T02:03:25;97969.08;;;11.46;85.14
50011;BME280;35899;50.352;19.390;2022-10-16T02:05:54;97972.95;;;11.41;85.17
50011;BME280;35899;50.352;19.390;2022-10-16T02:08:24;97975.77;;;11.38;85.35
50011;BME280;35899;50.352;19.390;2022-10-16T02:10:55;97976.94;;;11.33;85.16
50011;BME280;35899;50.352;19.390;2022-10-16T02:13:45;97976.67;;;11.25;85.08
50011;BME280;35899;50.352;19.390;2022-10-16T02:16:18;97982.18;;;11.21;85.10
50011;BME280;35899;50.352;19.390;2022-10-16T02:18:45;97982.52;;;11.16;85.30
50011;BME280;35899;50.352;19.390;2022-10-16T02:30:32;97989.19;;;11.07;85.91
50011;BME280;35899;50.352;19.390;2022-10-16T02:33:02;97991.89;;;11.06;86.08
50011;BME280;35899;50.352;19.390;2022-10-16T02:35:31;97995.65;;;11.02;86.06
50011;BME280;35899;50.352;19.390;2022-10-16T02:37:59;97997.05;;;11.00;86.09
50011;BME280;35899;50.352;19.390;2022-10-16T02:40:27;97991.61;;;10.98;86.10
50011;BME280;35899;50.352;19.390;2022-10-16T02:42:54;97988.64;;;10.96;86.25
50011;BME280;35899;50.352;19.390;2022-10-16T02:45:22;97991.10;;;10.92;86.32
50011;BME280;35899;50.352;19.390;2022-10-16T02:47:50;97987.20;;;10.92;86.36
50011;BME280;35899;50.352;19.390;2022-10-16T02:50:17;97990.62;;;10.87;86.37
50011;BME280;35899;50.352;19.390;2022-10-16T02:52:44;97992.49;;;10.85;86.58
50011;BME280;35899;50.352;19.390;2022-10-16T02:55:11;97992.22;;;10.83;86.54
50011;BME280;35899;50.352;19.390;2022-10-16T02:57:38;97989.96;;;10.78;86.38
50011;BME280;35899;50.352;19.390;2022-10-16T03:00:08;97989.92;;;10.72;86.46
50011;BME280;35899;50.352;19.390;2022-10-16T03:02:36;97989.30;;;10.69;86.51
50011;BME280;35899;50.352;19.390;2022-10-16T03:05:04;97993.25;;;10.62;86.51
50011;BME280;35899;50.352;19.390;2022-10-16T03:07:31;97998.30;;;10.58;86.56
50011;BME280;35899;50.352;19.390;2022-10-16T03:09:59;97996.48;;;10.52;86.71
50011;BME280;35899;50.352;19.390;2022-10-16T03:12:27;98000.94;;;10.50;87.06
50011;BME280;35899;50.352;19.390;2022-10-16T03:14:58;98009.69;;;10.49;87.31
50011;BME280;35899;50.352;19.390;2022-10-16T03:17:25;98007.28;;;10.46;87.31
50011;BME280;35899;50.352;19.390;2022-10-16T03:19:52;98009.83;;;10.41;87.22
50011;BME280;35899;50.352;19.390;2022-10-16T03:22:19;98008.86;;;10.36;87.34
50011;BME280;35899;50.352;19.390;2022-10-16T03:24:46;98012.59;;;10.32;87.53
50011;BME280;35899;50.352;19.390;2022-10-16T03:27:14;98011.94;;;10.28;87.59
50011;BME280;35899;50.352;19.390;2022-10-16T03:29:41;98013.06;;;10.24;87.67
50011;BME280;35899;50.352;19.390;2022-10-16T03:32:08;98014.20;;;10.20;87.79
50011;BME280;35899;50.352;19.390;2022-10-16T03:34:35;98018.66;;;10.18;88.04
50011;BME280;35899;50.352;19.390;2022-10-16T03:37:02;98018.77;;;10.16;88.32
50011;BME280;35899;50.352;19.390;2022-10-16T03:39:30;98021.92;;;10.14;88.20
50011;BME280;35899;50.352;19.390;2022-10-16T03:41:57;98024.02;;;10.09;88.15
50011;BME280;35899;50.352;19.390;2022-10-16T03:44:24;98024.20;;;10.06;88.33
50011;BME280;35899;50.352;19.390;2022-10-16T03:46:51;98026.08;;;10.04;88.50
50011;BME280;35899;50.352;19.390;2022-10-16T03:49:18;98029.34;;;10.01;88.23
50011;BME280;35899;50.352;19.390;2022-10-16T03:51:45;98033.80;;;9.98;88.44
50011;BME280;35899;50.352;19.390;2022-10-16T03:54:12;98034.55;;;9.93;88.49
50011;BME280;35899;50.352;19.390;2022-10-16T03:56:39;98032.63;;;9.90;88.26
50011;BME280;35899;50.352;19.390;2022-10-16T03:59:06;98039.33;;;9.87;88.54
50011;BME280;35899;50.352;19.390;2022-10-16T04:01:33;98042.84;;;9.86;88.65
50011;BME280;35899;50.352;19.390;2022-10-16T04:04:00;98038.22;;;9.84;88.56
50011;BME280;35899;50.352;19.390;2022-10-16T04:06:27;98046.22;;;9.81;88.25
50011;BME280;35899;50.352;19.390;2022-10-16T04:08:54;98043.55;;;9.75;88.10
50011;BME280;35899;50.352;19.390;2022-10-16T04:11:22;98042.76;;;9.67;88.05
50011;BME280;35899;50.352;19.390;2022-10-16T04:13:49;98043.70;;;9.59;87.97
50011;BME280;35899;50.352;19.390;2022-10-16T04:16:16;98042.33;;;9.53;87.89
50011;BME280;35899;50.352;19.390;2022-10-16T04:18:44;98049.20;;;9.47;87.80
50011;BME280;35899;50.352;19.390;2022-10-16T04:21:11;98051.16;;;9.44;87.86
50011;BME280;35899;50.352;19.390;2022-10-16T04:23:38;98046.62;;;9.40;88.03
50011;BME280;35899;50.352;19.390;2022-10-16T04:26:05;98039.42;;;9.38;88.21
50011;BME280;35899;50.352;19.390;2022-10-16T04:28:32;98044.60;;;9.38;88.46
50011;BME280;35899;50.352;19.390;2022-10-16T04:30:59;98039.89;;;9.37;88.77
50011;BME280;35899;50.352;19.390;2022-10-16T04:33:26;98040.72;;;9.38;89.02
50011;BME280;35899;50.352;19.390;2022-10-16T04:35:57;98037.21;;;9.39;89.18
50011;BME280;35899;50.352;19.390;2022-10-16T04:38:25;98048.40;;;9.39;89.30
50011;BME280;35899;50.352;19.390;2022-10-16T04:40:53;98054.88;;;9.39;89.49
50011;BME280;35899;50.352;19.390;2022-10-16T04:43:20;98054.88;;;9.39;89.29
50011;BME280;35899;50.352;19.390;2022-10-16T04:45:47;98048.02;;;9.38;89.33
50011;BME280;35899;50.352;19.390;2022-10-16T04:48:17;98047.92;;;9.40;89.58
50011;BME280;35899;50.352;19.390;2022-10-16T04:50:44;98043.40;;;9.36;89.37
50011;BME280;35899;50.352;19.390;2022-10-16T04:53:12;98054.14;;;9.37;89.46
50011;BME280;35899;50.352;19.390;2022-10-16T04:55:40;98054.05;;;9.39;89.46
50011;BME280;35899;50.352;19.390;2022-10-16T04:58:08;98057.47;;;9.39;89.49
50011;BME280;35899;50.352;19.390;2022-10-16T05:00:35;98053.02;;;9.42;89.67
50011;BME280;35899;50.352;19.390;2022-10-16T05:03:04;98055.52;;;9.43;89.46
50011;BME280;35899;50.352;19.390;2022-10-16T05:05:36;98060.22;;;9.44;89.42
50011;BME280;35899;50.352;19.390;2022-10-16T05:08:03;98057.16;;;9.44;89.56
50011;BME280;35899;50.352;19.390;2022-10-16T05:10:30;98059.66;;;9.46;89.60
50011;BME280;35899;50.352;19.390;2022-10-16T05:12:57;98066.52;;;9.47;89.56
50011;BME280;35899;50.352;19.390;2022-10-16T05:15:24;98068.89;;;9.50;89.85
50011;BME280;35899;50.352;19.390;2022-10-16T05:17:55;98064.45;;;9.52;90.08
50011;BME280;35899;50.352;19.390;2022-10-16T05:20:23;98056.14;;;9.54;90.12
50011;BME280;35899;50.352;19.390;2022-10-16T05:22:50;98059.81;;;9.57;90.15
50011;BME280;35899;50.352;19.390;2022-10-16T05:25:17;98061.84;;;9.59;90.07
50011;BME280;35899;50.352;19.390;2022-10-16T05:27:47;98063.67;;;9.64;90.15
50011;BME280;35899;50.352;19.390;2022-10-16T05:30:16;98063.66;;;9.71;90.30
50011;BME280;35899;50.352;19.390;2022-10-16T05:32:49;98069.89;;;9.82;90.45
50011;BME280;35899;50.352;19.390;2022-10-16T05:35:18;98074.02;;;9.91;90.45
50011;BME280;35899;50.352;19.390;2022-10-16T05:37:46;98074.24;;;10.01;90.37
50011;BME280;35899;50.352;19.390;2022-10-16T05:40:14;98079.55;;;10.12;90.29
50011;BME280;35899;50.352;19.390;2022-10-16T05:42:42;98075.63;;;10.20;90.32
50011;BME280;35899;50.352;19.390;2022-10-16T05:45:10;98085.15;;;10.26;90.37
50011;BME280;35899;50.352;19.390;2022-10-16T05:47:38;98091.25;;;10.32;90.43
50011;BME280;35899;50.352;19.390;2022-10-16T05:50:05;98093.53;;;10.37;90.36
50011;BME280;35899;50.352;19.390;2022-10-16T05:52:33;98100.90;;;10.43;90.23
50011;BME280;35899;50.352;19.390;2022-10-16T05:55:00;98104.03;;;10.48;90.21
50011;BME280;35899;50.352;19.390;2022-10-16T05:57:27;98108.45;;;10.53;90.16
50011;BME280;35899;50.352;19.390;2022-10-16T05:59:54;98107.30;;;10.58;90.05
50011;BME280;35899;50.352;19.390;2022-10-16T06:02:21;98112.55;;;10.63;89.89
50011;BME280;35899;50.352;19.390;2022-10-16T06:04:48;98114.95;;;10.66;89.78
50011;BME280;35899;50.352;19.390;2022-10-16T06:07:15;98112.61;;;10.69;89.58
50011;BME280;35899;50.352;19.390;2022-10-16T06:09:42;98117.95;;;10.73;89.53
50011;BME280;35899;50.352;19.390;2022-10-16T06:12:09;98126.27;;;10.78;89.52
50011;BME280;35899;50.352;19.390;2022-10-16T06:14:36;98127.14;;;10.84;89.46
50011;BME280;35899;50.352;19.390;2022-10-16T06:17:03;98125.42;;;10.90;89.56
50011;BME280;35899;50.352;19.390;2022-10-16T06:19:30;98130.46;;;10.99;89.54
50011;BME280;35899;50.352;19.390;2022-10-16T06:21:58;98129.36;;;11.09;89.52
50011;BME280;35899;50.352;19.390;2022-10-16T06:24:25;98130.22;;;11.15;89.49
50011;BME280;35899;50.352;19.390;2022-10-16T06:26:53;98139.36;;;11.21;89.42
50011;BME280;35899;50.352;19.390;2022-10-16T06:29:20;98143.88;;;11.24;89.42
50011;BME280;35899;50.352;19.390;2022-10-16T06:31:47;98150.28;;;11.26;89.21
50011;BME280;35899;50.352;19.390;2022-10-16T06:34:14;98149.59;;;11.29;89.18
50011;BME280;35899;50.352;19.390;2022-10-16T06:36:42;98153.27;;;11.32;89.06
50011;BME280;35899;50.352;19.390;2022-10-16T06:39:09;98160.66;;;11.39;88.93
50011;BME280;35899;50.352;19.390;2022-10-16T06:41:36;98163.40;;;11.43;88.83
50011;BME280;35899;50.352;19.390;2022-10-16T06:44:06;98168.16;;;11.49;88.86
50011;BME280;35899;50.352;19.390;2022-10-16T06:46:35;98165.84;;;11.57;88.86
50011;BME280;35899;50.352;19.390;2022-10-16T06:49:03;98156.72;;;11.70;89.07
50011;BME280;35899;50.352;19.390;2022-10-16T06:51:30;98164.59;;;11.81;89.15
50011;BME280;35899;50.352;19.390;2022-10-16T06:53:58;98167.76;;;11.92;89.15
50011;BME280;35899;50.352;19.390;2022-10-16T06:56:26;98167.45;;;12.02;89.23
50011;BME280;35899;50.352;19.390;2022-10-16T06:58:55;98172.22;;;12.14;89.29
50011;BME280;35899;50.352;19.390;2022-10-16T07:01:24;98173.68;;;12.24;89.08
50011;BME280;35899;50.352;19.390;2022-10-16T07:03:52;98170.66;;;12.41;89.05
50011;BME280;35899;50.352;19.390;2022-10-16T07:06:20;98175.34;;;12.60;89.04
50011;BME280;35899;50.352;19.390;2022-10-16T07:08:49;98172.78;;;12.77;88.66
50011;BME280;35899;50.352;19.390;2022-10-16T07:11:19;98175.67;;;12.97;88.36
50011;BME280;35899;50.352;19.390;2022-10-16T07:13:48;98174.25;;;13.15;88.24
50011;BME280;35899;50.352;19.390;2022-10-16T07:16:19;98173.23;;;13.35;87.83
50011;BME280;35899;50.352;19.390;2022-10-16T07:18:47;98171.66;;;13.55;87.47
50011;BME280;35899;50.352;19.390;2022-10-16T07:21:18;98174.95;;;13.79;87.51
50011;BME280;35899;50.352;19.390;2022-10-16T07:23:51;98175.81;;;14.06;87.54
50011;BME280;35899;50.352;19.390;2022-10-16T07:26:19;98170.50;;;14.35;87.26
50011;BME280;35899;50.352;19.390;2022-10-16T07:28:46;98173.73;;;14.59;86.85
50011;BME280;35899;50.352;19.390;2022-10-16T07:31:15;98170.02;;;14.83;86.83
50011;BME280;35899;50.352;19.390;2022-10-16T07:33:44;98172.41;;;15.01;86.15
50011;BME280;35899;50.352;19.390;2022-10-16T07:36:12;98173.34;;;15.21;86.05
50011;BME280;35899;50.352;19.390;2022-10-16T07:38:40;98178.97;;;15.42;85.68
50011;BME280;35899;50.352;19.390;2022-10-16T07:41:13;98181.19;;;15.62;85.45
50011;BME280;35899;50.352;19.390;2022-10-16T07:43:47;98185.67;;;15.81;85.40
50011;BME280;35899;50.352;19.390;2022-10-16T07:46:17;98188.88;;;15.94;84.24
50011;BME280;35899;50.352;19.390;2022-10-16T07:48:45;98189.07;;;15.97;83.39
50011;BME280;35899;50.352;19.390;2022-10-16T07:51:16;98187.64;;;16.08;83.28
50011;BME280;35899;50.352;19.390;2022-10-16T07:53:45;98189.74;;;16.24;82.54
50011;BME280;35899;50.352;19.390;2022-10-16T07:56:13;98188.83;;;16.39;82.22
50011;BME280;35899;50.352;19.390;2022-10-16T07:58:41;98189.47;;;16.56;81.49
50011;BME280;35899;50.352;19.390;2022-10-16T08:01:11;98189.38;;;16.72;80.63
50011;BME280;35899;50.352;19.390;2022-10-16T08:06:10;98194.53;;;16.97;79.93
50011;BME280;35899;50.352;19.390;2022-10-16T08:08:37;98199.80;;;17.11;79.64
50011;BME280;35899;50.352;19.390;2022-10-16T08:11:05;98197.55;;;17.26;78.95
50011;BME280;35899;50.352;19.390;2022-10-16T08:13:32;98204.94;;;17.40;78.44
50011;BME280;35899;50.352;19.390;2022-10-16T08:15:59;98203.84;;;17.56;78.22
50011;BME280;35899;50.352;19.390;2022-10-16T08:18:26;98200.67;;;17.67;76.90
50011;BME280;35899;50.352;19.390;2022-10-16T08:20:58;98208.53;;;17.76;75.48
50011;BME280;35899;50.352;19.390;2022-10-16T08:23:27;98206.84;;;17.85;74.97
50011;BME280;35899;50.352;19.390;2022-10-16T08:25:55;98212.03;;;17.95;74.96
50011;BME280;35899;50.352;19.390;2022-10-16T08:28:25;98210.89;;;17.93;73.06
50011;BME280;35899;50.352;19.390;2022-10-16T08:30:52;98209.80;;;18.00;74.05
50011;BME280;35899;50.352;19.390;2022-10-16T08:33:19;98209.77;;;18.14;73.75
50011;BME280;35899;50.352;19.390;2022-10-16T08:35:52;98204.30;;;18.25;73.40
50011;BME280;35899;50.352;19.390;2022-10-16T08:38:21;98203.93;;;18.38;73.00
50011;BME280;35899;50.352;19.390;2022-10-16T08:40:48;98208.78;;;18.47;72.82
50011;BME280;35899;50.352;19.390;2022-10-16T08:45:58;98215.97;;;18.63;71.71
50011;BME280;35899;50.352;19.390;2022-10-16T08:51:28;98225.03;;;18.64;70.17
50011;BME280;35899;50.352;19.390;2022-10-16T08:54:02;98224.50;;;18.61;69.09
50011;BME280;35899;50.352;19.390;2022-10-16T08:56:31;98223.71;;;18.64;68.48
50011;BME280;35899;50.352;19.390;2022-10-16T08:59:00;98221.91;;;18.65;68.47
50011;BME280;35899;50.352;19.390;2022-10-16T09:12:43;98222.36;;;19.26;66.90
50011;BME280;35899;50.352;19.390;2022-10-16T09:18:22;98221.40;;;20.04;65.70
50011;BME280;35899;50.352;19.390;2022-10-16T09:23:52;98223.30;;;20.53;63.40
50011;BME280;35899;50.352;19.390;2022-10-16T09:26:20;98224.31;;;20.97;62.15
50011;BME280;35899;50.352;19.390;2022-10-16T09:28:48;98230.36;;;21.35;61.16
50011;BME280;35899;50.352;19.390;2022-10-16T09:31:18;98220.55;;;21.64;59.93
50011;BME280;35899;50.352;19.390;2022-10-16T09:33:50;98224.21;;;21.94;59.38
50011;BME280;35899;50.352;19.390;2022-10-16T09:36:20;98234.73;;;22.02;58.16
50011;BME280;35899;50.352;19.390;2022-10-16T09:38:48;98235.63;;;21.91;58.02
50011;BME280;35899;50.352;19.390;2022-10-16T09:41:21;98238.61;;;21.92;57.98
50011;BME280;35899;50.352;19.390;2022-10-16T09:44:01;98238.58;;;21.96;57.36
50011;BME280;35899;50.352;19.390;2022-10-16T09:49:18;98248.02;;;22.30;57.22
50011;BME280;35899;50.352;19.390;2022-10-16T09:51:51;98244.72;;;22.19;57.17
50011;BME280;35899;50.352;19.390;2022-10-16T09:54:21;98250.50;;;21.92;56.59
50011;BME280;35899;50.352;19.390;2022-10-16T09:56:48;98247.99;;;21.51;56.49
50011;BME280;35899;50.352;19.390;2022-10-16T09:59:22;98254.45;;;21.27;56.76
50011;BME280;35899;50.352;19.390;2022-10-16T10:01:54;98254.63;;;21.22;56.38
50011;BME280;35899;50.352;19.390;2022-10-16T10:04:23;98260.41;;;21.09;56.14
50011;BME280;35899;50.352;19.390;2022-10-16T10:06:53;98257.08;;;21.32;56.30
50011;BME280;35899;50.352;19.390;2022-10-16T10:09:27;98262.50;;;21.55;55.81
50011;BME280;35899;50.352;19.390;2022-10-16T10:12:01;98260.85;;;21.58;55.60
50011;BME280;35899;50.352;19.390;2022-10-16T10:14:38;98256.73;;;21.59;55.95
50011;BME280;35899;50.352;19.390;2022-10-16T10:17:22;98260.52;;;21.57;56.02
50011;BME280;35899;50.352;19.390;2022-10-16T10:40:50;98254.98;;;21.83;56.77
50011;BME280;35899;50.352;19.390;2022-10-16T10:46:22;98261.56;;;22.54;55.17
50011;BME280;35899;50.352;19.390;2022-10-16T10:52:13;98256.73;;;22.80;54.57
50011;BME280;35899;50.352;19.390;2022-10-16T10:57:56;98250.67;;;23.33;54.36
50011;BME280;35899;50.352;19.390;2022-10-16T11:06:19;98244.94;;;23.59;53.69
50011;BME280;35899;50.352;19.390;2022-10-16T11:09:18;98243.51;;;23.67;53.51
50011;BME280;35899;50.352;19.390;2022-10-16T11:11:56;98249.56;;;23.57;52.53
50011;BME280;35899;50.352;19.390;2022-10-16T11:14:30;98244.09;;;23.58;52.79
50011;BME280;35899;50.352;19.390;2022-10-16T11:17:28;98238.30;;;23.29;52.14
50011;BME280;35899;50.352;19.390;2022-10-16T11:23:05;98240.59;;;22.75;52.42
50011;BME280;35899;50.352;19.390;2022-10-16T11:25:39;98245.06;;;22.71;52.98
50011;BME280;35899;50.352;19.390;2022-10-16T11:28:20;98242.55;;;22.77;52.84
50011;BME280;35899;50.352;19.390;2022-10-16T11:31:11;98248.70;;;22.74;52.51
50011;BME280;35899;50.352;19.390;2022-10-16T11:39:44;98247.23;;;23.28;52.13
50011;BME280;35899;50.352;19.390;2022-10-16T11:42:39;98252.22;;;23.72;51.70
50011;BME280;35899;50.352;19.390;2022-10-16T11:50:56;98252.72;;;24.48;49.96
50011;BME280;35899;50.352;19.390;2022-10-16T11:53:46;98245.99;;;24.78;49.33
50011;BME280;35899;50.352;19.390;2022-10-16T11:56:35;98254.04;;;25.24;49.12
50011;BME280;35899;50.352;19.390;2022-10-16T12:08:03;98244.81;;;25.89;47.34
50011;BME280;35899;50.352;19.390;2022-10-16T12:10:36;98246.03;;;25.69;46.85
50011;BME280;35899;50.352;19.390;2022-10-16T12:13:27;98245.62;;;25.48;46.33
50011;BME280;35899;50.352;19.390;2022-10-16T12:18:44;98242.92;;;29.93;42.56
50011;BME280;35899;50.352;19.390;2022-10-16T12:21:14;98242.92;;;29.93;42.56
50011;BME280;35899;50.352;19.390;2022-10-16T12:23:51;98248.72;;;29.71;40.01
50011;BME280;35899;50.352;19.390;2022-10-16T12:26:28;98254.30;;;29.42;40.43
50011;BME280;35899;50.352;19.390;2022-10-16T12:35:16;98259.52;;;27.74;41.02
50011;BME280;35899;50.352;19.390;2022-10-16T12:37:47;98267.72;;;27.29;41.37
50011;BME280;35899;50.352;19.390;2022-10-16T12:42:52;98265.35;;;26.77;40.77
50011;BME280;35899;50.352;19.390;2022-10-16T12:48:17;98270.84;;;25.59;42.94
50011;BME280;35899;50.352;19.390;2022-10-16T12:50:37;98273.02;;;25.10;43.61
50011;BME280;35899;50.352;19.390;2022-10-16T12:53:26;98265.91;;;24.56;44.70
50011;BME280;35899;50.352;19.390;2022-10-16T12:59:12;98277.22;;;23.73;45.48
50011;BME280;35899;50.352;19.390;2022-10-16T13:04:47;98275.95;;;22.97;46.96
50011;BME280;35899;50.352;19.390;2022-10-16T13:10:51;98283.23;;;22.22;48.35
50011;BME280;35899;50.352;19.390;2022-10-16T13:16:40;98286.55;;;21.72;49.28
50011;BME280;35899;50.352;19.390;2022-10-16T13:30:44;98286.16;;;21.19;51.77
50011;BME280;35899;50.352;19.390;2022-10-16T13:33:37;98287.95;;;21.15;51.72
50011;BME280;35899;50.352;19.390;2022-10-16T13:36:06;98284.99;;;21.18;52.01
50011;BME280;35899;50.352;19.390;2022-10-16T13:38:36;98292.09;;;21.17;52.05
50011;BME280;35899;50.352;19.390;2022-10-16T13:41:20;98289.61;;;21.20;52.34
50011;BME280;35899;50.352;19.390;2022-10-16T13:43:49;98286.32;;;21.14;52.32
50011;BME280;35899;50.352;19.390;2022-10-16T13:46:22;98298.67;;;21.13;52.66
50011;BME280;35899;50.352;19.390;2022-10-16T13:48:58;98294.56;;;21.11;52.69
50011;BME280;35899;50.352;19.390;2022-10-16T13:51:29;98297.05;;;21.04;52.54
50011;BME280;35899;50.352;19.390;2022-10-16T13:53:58;98302.65;;;21.01;52.79
50011;BME280;35899;50.352;19.390;2022-10-16T13:56:27;98302.33;;;21.08;52.92
50011;BME280;35899;50.352;19.390;2022-10-16T13:59:03;98301.50;;;21.12;53.24
50011;BME280;35899;50.352;19.390;2022-10-16T14:01:34;98302.81;;;21.16;53.21
50011;BME280;35899;50.352;19.390;2022-10-16T14:04:11;98291.25;;;21.17;52.95
50011;BME280;35899;50.352;19.390;2022-10-16T14:06:44;98293.73;;;21.18;53.23
50011;BME280;35899;50.352;19.390;2022-10-16T14:09:24;98284.34;;;21.16;53.32
50011;BME280;35899;50.352;19.390;2022-10-16T14:12:07;98285.48;;;21.05;53.58
50011;BME280;35899;50.352;19.390;2022-10-16T14:14:42;98276.25;;;20.88;53.51
50011;BME280;35899;50.352;19.390;2022-10-16T14:19:58;98276.34;;;20.34;54.16
50011;BME280;35899;50.352;19.390;2022-10-16T14:22:37;98280.88;;;20.07;54.91
50011;BME280;35899;50.352;19.390;2022-10-16T14:30:34;98293.28;;;19.58;56.09
50011;BME280;35899;50.352;19.390;2022-10-16T14:33:05;98289.15;;;19.51;56.55
50011;BME280;35899;50.352;19.390;2022-10-16T14:35:37;98296.98;;;19.43;56.76
50011;BME280;35899;50.352;19.390;2022-10-16T14:38:14;98309.45;;;19.37;56.86
50011;BME280;35899;50.352;19.390;2022-10-16T14:40:38;98314.48;;;19.30;57.28
50011;BME280;35899;50.352;19.390;2022-10-16T14:43:05;98325.31;;;19.23;57.76
50011;BME280;35899;50.352;19.390;2022-10-16T14:45:34;98334.11;;;19.14;57.94
50011;BME280;35899;50.352;19.390;2022-10-16T14:48:13;98332.22;;;19.02;58.14
50011;BME280;35899;50.352;19.390;2022-10-16T14:50:37;98333.94;;;18.93;58.49
50011;BME280;35899;50.352;19.390;2022-10-16T14:53:12;98338.60;;;18.82;59.04
50011;BME280;35899;50.352;19.390;2022-10-16T14:55:40;98342.73;;;18.70;59.11
50011;BME280;35899;50.352;19.390;2022-10-16T14:58:16;98337.97;;;18.56;59.70
50011;BME280;35899;50.352;19.390;2022-10-16T15:00:48;98332.59;;;18.44;60.13
50011;BME280;35899;50.352;19.390;2022-10-16T15:03:18;98337.77;;;18.35;60.32
50011;BME280;35899;50.352;19.390;2022-10-16T15:05:45;98337.33;;;18.26;60.53
50011;BME280;35899;50.352;19.390;2022-10-16T15:08:12;98338.53;;;18.18;60.86
50011;BME280;35899;50.352;19.390;2022-10-16T15:10:42;98333.68;;;18.09;61.14
50011;BME280;35899;50.352;19.390;2022-10-16T15:13:15;98335.09;;;18.04;61.30
50011;BME280;35899;50.352;19.390;2022-10-16T15:15:45;98329.25;;;17.96;61.57
50011;BME280;35899;50.352;19.390;2022-10-16T15:18:13;98325.58;;;17.93;61.90
50011;BME280;35899;50.352;19.390;2022-10-16T15:20:42;98333.00;;;17.93;62.09
50011;BME280;35899;50.352;19.390;2022-10-16T15:23:15;98342.52;;;17.94;62.38
50011;BME280;35899;50.352;19.390;2022-10-16T15:25:52;98343.64;;;17.92;62.57
50011;BME280;35899;50.352;19.390;2022-10-16T15:28:21;98337.30;;;17.85;62.82
50011;BME280;35899;50.352;19.390;2022-10-16T15:30:51;98334.33;;;17.74;63.12
50011;BME280;35899;50.352;19.390;2022-10-16T15:33:22;98337.97;;;17.63;63.43
50011;BME280;35899;50.352;19.390;2022-10-16T15:35:53;98339.58;;;17.50;63.65
50011;BME280;35899;50.352;19.390;2022-10-16T15:38:22;98339.00;;;17.33;63.90
50011;BME280;35899;50.352;19.390;2022-10-16T15:40:49;98345.97;;;17.18;64.32
50011;BME280;35899;50.352;19.390;2022-10-16T15:43:17;98339.98;;;17.03;64.83
50011;BME280;35899;50.352;19.390;2022-10-16T15:48:33;98353.03;;;16.73;65.46
50011;BME280;35899;50.352;19.390;2022-10-16T15:51:06;98349.89;;;16.54;65.91
50011;BME280;35899;50.352;19.390;2022-10-16T15:53:34;98344.08;;;16.41;66.41
50011;BME280;35899;50.352;19.390;2022-10-16T15:56:04;98350.27;;;16.30;66.80
50011;BME280;35899;50.352;19.390;2022-10-16T15:58:32;98352.86;;;16.20;67.35